sensor_id;sensor_type;location;lat;lon;timestamp;P1;durP1;ratioP1;P2;durP2;ratioP2
31808;SDS011;18379;48.208;-1.518;2022-12-11T00:02:30;48.07;;;36.00;;
31808;SDS011;18379;48.208;-1.518;2022-12-11T00:07:31;54.33;;;38.60;;
31808;SDS011;18379;48.208;-1.518;2022-12-11T00:12:31;46.93;;;34.70;;
31808;SDS011;18379;48.208;-1.518;2022-12-11T00:17:32;42.10;;;33.50;;
31808;SDS011;18379;48.208;-1.518;2022-12-11T00:22:33;40.43;;;34.33;;
31808;SDS011;18379;48.208;-1.518;2022-12-11T00:27:34;38.30;;;33.70;;
31808;SDS011;18379;48.208;-1.518;2022-12-11T00:32:35;47.13;;;34.87;;
31808;SDS011;18379;48.208;-1.518;2022-12-11T00:37:36;44.50;;;34.93;;
31808;SDS011;18379;48.208;-1.518;2022-12-11T00:42:37;43.80;;;35.23;;
31808;SDS011;18379;48.208;-1.518;2022-12-11T00:47:37;47.40;;;35.47;;
31808;SDS011;18379;48.208;-1.518;2022-12-11T00:52:38;48.00;;;36.33;;
31808;SDS011;18379;48.208;-1.518;2022-12-11T00:57:39;46.90;;;35.80;;
31808;SDS011;18379;48.208;-1.518;2022-12-11T01:02:40;45.70;;;35.70;;
31808;SDS011;18379;48.208;-1.518;2022-12-11T01:07:41;50.07;;;36.83;;
31808;SDS011;18379;48.208;-1.518;2022-12-11T01:12:43;51.97;;;37.83;;
31808;SDS011;18379;48.208;-1.518;2022-12-11T01:17:47;59.13;;;39.50;;
31808;SDS011;18379;48.208;-1.518;2022-12-11T01:22:51;57.30;;;41.87;;
31808;SDS011;18379;48.208;-1.518;2022-12-11T01:27:53;54.33;;;39.43;;
31808;SDS011;18379;48.208;-1.518;2022-12-11T01:32:55;53.13;;;37.90;;
31808;SDS011;18379;48.208;-1.518;2022-12-11T01:37:55;56.83;;;37.63;;
31808;SDS011;18379;48.208;-1.518;2022-12-11T01:42:56;46.13;;;35.50;;
31808;SDS011;18379;48.208;-1.518;2022-12-11T01:48:00;48.67;;;34.33;;
31808;SDS011;18379;48.208;-1.518;2022-12-11T01:53:01;40.43;;;32.80;;
31808;SDS011;18379;48.208;-1.518;2022-12-11T01:58:07;47.83;;;34.80;;
31808;SDS011;18379;48.208;-1.518;2022-12-11T02:03:09;44.00;;;35.03;;
31808;SDS011;18379;48.208;-1.518;2022-12-11T02:08:10;41.50;;;32.57;;
31808;SDS011;18379;48.208;-1.518;2022-12-11T02:13:59;41.27;;;33.00;;
31808;SDS011;18379;48.208;-1.518;2022-12-11T02:40:21;49.40;;;35.30;;
31808;SDS011;18379;48.208;-1.518;2022-12-11T02:45:25;57.20;;;38.43;;
31808;SDS011;18379;48.208;-1.518;2022-12-11T02:50:27;58.67;;;37.73;;
31808;SDS011;18379;48.208;-1.518;2022-12-11T02:55:29;55.43;;;37.90;;
31808;SDS011;18379;48.208;-1.518;2022-12-11T03:00:32;57.10;;;40.23;;
31808;SDS011;18379;48.208;-1.518;2022-12-11T03:05:33;52.87;;;37.00;;
31808;SDS011;18379;48.208;-1.518;2022-12-11T03:10:34;55.23;;;38.40;;
31808;SDS011;18379;48.208;-1.518;2022-12-11T03:26:10;56.63;;;36.40;;
31808;SDS011;18379;48.208;-1.518;2022-12-11T03:36:51;45.30;;;32.67;;
31808;SDS011;18379;48.208;-1.518;2022-12-11T03:41:56;52.03;;;35.80;;
31808;SDS011;18379;48.208;-1.518;2022-12-11T03:47:00;49.07;;;34.87;;
31808;SDS011;18379;48.208;-1.518;2022-12-11T03:52:03;45.03;;;33.47;;
31808;SDS011;18379;48.208;-1.518;2022-12-11T03:57:05;49.70;;;33.70;;
31808;SDS011;18379;48.208;-1.518;2022-12-11T04:02:08;43.00;;;32.00;;
31808;SDS011;18379;48.208;-1.518;2022-12-11T04:07:09;43.67;;;31.30;;
31808;SDS011;18379;48.208;-1.518;2022-12-11T04:12:10;36.20;;;29.47;;
31808;SDS011;18379;48.208;-1.518;2022-12-11T04:17:11;37.43;;;30.20;;
31808;SDS011;18379;48.208;-1.518;2022-12-11T04:22:32;42.30;;;32.43;;
31808;SDS011;18379;48.208;-1.518;2022-12-11T04:27:51;42.40;;;30.17;;
31808;SDS011;18379;48.208;-1.518;2022-12-11T04:32:53;41.20;;;31.47;;
31808;SDS011;18379;48.208;-1.518;2022-12-11T04:37:54;45.47;;;32.87;;
31808;SDS011;18379;48.208;-1.518;2022-12-11T04:42:55;44.93;;;33.63;;
31808;SDS011;18379;48.208;-1.518;2022-12-11T04:47:56;44.07;;;33.07;;
31808;SDS011;18379;48.208;-1.518;2022-12-11T04:52:58;41.17;;;31.50;;
31808;SDS011;18379;48.208;-1.518;2022-12-11T04:57:59;42.30;;;31.93;;
31808;SDS011;18379;48.208;-1.518;2022-12-11T05:03:00;39.77;;;30.43;;
31808;SDS011;18379;48.208;-1.518;2022-12-11T05:08:01;41.73;;;30.70;;
31808;SDS011;18379;48.208;-1.518;2022-12-11T05:13:02;40.90;;;30.27;;
31808;SDS011;18379;48.208;-1.518;2022-12-11T05:18:03;42.83;;;31.37;;
31808;SDS011;18379;48.208;-1.518;2022-12-11T05:23:04;44.97;;;31.50;;
31808;SDS011;18379;48.208;-1.518;2022-12-11T05:28:04;43.10;;;31.83;;
31808;SDS011;18379;48.208;-1.518;2022-12-11T05:33:05;41.37;;;30.43;;
31808;SDS011;18379;48.208;-1.518;2022-12-11T05:38:06;40.80;;;29.97;;
31808;SDS011;18379;48.208;-1.518;2022-12-11T05:43:07;38.83;;;29.77;;
31808;SDS011;18379;48.208;-1.518;2022-12-11T05:48:07;38.50;;;29.97;;
31808;SDS011;18379;48.208;-1.518;2022-12-11T05:53:08;35.83;;;28.43;;
31808;SDS011;18379;48.208;-1.518;2022-12-11T05:58:09;38.33;;;29.23;;
31808;SDS011;18379;48.208;-1.518;2022-12-11T06:03:10;37.93;;;29.67;;
31808;SDS011;18379;48.208;-1.518;2022-12-11T06:08:10;33.80;;;27.20;;
31808;SDS011;18379;48.208;-1.518;2022-12-11T06:13:11;34.23;;;26.97;;
31808;SDS011;18379;48.208;-1.518;2022-12-11T06:18:13;33.27;;;27.00;;
31808;SDS011;18379;48.208;-1.518;2022-12-11T06:23:13;29.83;;;26.27;;
31808;SDS011;18379;48.208;-1.518;2022-12-11T06:28:14;36.57;;;27.07;;
31808;SDS011;18379;48.208;-1.518;2022-12-11T06:33:15;36.33;;;27.77;;
31808;SDS011;18379;48.208;-1.518;2022-12-11T06:38:16;35.37;;;27.20;;
31808;SDS011;18379;48.208;-1.518;2022-12-11T06:43:17;39.40;;;28.83;;
31808;SDS011;18379;48.208;-1.518;2022-12-11T06:48:18;36.27;;;28.73;;
31808;SDS011;18379;48.208;-1.518;2022-12-11T06:53:19;59.27;;;44.47;;
31808;SDS011;18379;48.208;-1.518;2022-12-11T06:58:20;456.43;;;175.57;;
31808;SDS011;18379;48.208;-1.518;2022-12-11T07:03:21;368.70;;;173.43;;
31808;SDS011;18379;48.208;-1.518;2022-12-11T07:08:22;229.17;;;109.87;;
31808;SDS011;18379;48.208;-1.518;2022-12-11T07:13:22;192.17;;;125.13;;
31808;SDS011;18379;48.208;-1.518;2022-12-11T07:18:23;45.80;;;34.23;;
31808;SDS011;18379;48.208;-1.518;2022-12-11T07:23:25;45.53;;;33.23;;
31808;SDS011;18379;48.208;-1.518;2022-12-11T07:28:28;46.33;;;32.23;;
31808;SDS011;18379;48.208;-1.518;2022-12-11T07:33:29;47.20;;;33.80;;
31808;SDS011;18379;48.208;-1.518;2022-12-11T07:38:30;44.10;;;31.60;;
31808;SDS011;18379;48.208;-1.518;2022-12-11T07:43:31;44.60;;;32.03;;
31808;SDS011;18379;48.208;-1.518;2022-12-11T07:48:37;58.10;;;39.37;;
31808;SDS011;18379;48.208;-1.518;2022-12-11T07:53:38;56.37;;;37.83;;
31808;SDS011;18379;48.208;-1.518;2022-12-11T07:58:39;50.87;;;33.93;;
31808;SDS011;18379;48.208;-1.518;2022-12-11T08:03:41;44.47;;;32.10;;
31808;SDS011;18379;48.208;-1.518;2022-12-11T08:08:42;40.50;;;30.50;;
31808;SDS011;18379;48.208;-1.518;2022-12-11T08:13:43;38.87;;;30.77;;
31808;SDS011;18379;48.208;-1.518;2022-12-11T08:18:45;48.30;;;30.97;;
31808;SDS011;18379;48.208;-1.518;2022-12-11T08:23:46;44.57;;;31.50;;
31808;SDS011;18379;48.208;-1.518;2022-12-11T08:28:48;40.20;;;29.87;;
31808;SDS011;18379;48.208;-1.518;2022-12-11T08:33:49;48.97;;;32.53;;
31808;SDS011;18379;48.208;-1.518;2022-12-11T08:38:50;46.30;;;32.63;;
31808;SDS011;18379;48.208;-1.518;2022-12-11T08:43:54;49.83;;;32.77;;
31808;SDS011;18379;48.208;-1.518;2022-12-11T08:48:57;52.27;;;36.03;;
31808;SDS011;18379;48.208;-1.518;2022-12-11T08:53:59;59.80;;;36.27;;
31808;SDS011;18379;48.208;-1.518;2022-12-11T08:59:00;54.07;;;36.50;;
31808;SDS011;18379;48.208;-1.518;2022-12-11T09:04:02;58.57;;;37.87;;
31808;SDS011;18379;48.208;-1.518;2022-12-11T09:09:03;65.77;;;42.87;;
31808;SDS011;18379;48.208;-1.518;2022-12-11T09:14:05;55.37;;;37.93;;
31808;SDS011;18379;48.208;-1.518;2022-12-11T09:19:07;54.10;;;36.83;;
31808;SDS011;18379;48.208;-1.518;2022-12-11T09:24:12;43.00;;;33.57;;
31808;SDS011;18379;48.208;-1.518;2022-12-11T09:29:13;54.33;;;36.23;;
31808;SDS011;18379;48.208;-1.518;2022-12-11T09:34:13;52.33;;;36.27;;
31808;SDS011;18379;48.208;-1.518;2022-12-11T09:39:15;48.33;;;35.37;;
31808;SDS011;18379;48.208;-1.518;2022-12-11T09:44:18;49.17;;;35.03;;
31808;SDS011;18379;48.208;-1.518;2022-12-11T09:49:41;89.27;;;52.17;;
31808;SDS011;18379;48.208;-1.518;2022-12-11T09:54:46;56.90;;;39.97;;
31808;SDS011;18379;48.208;-1.518;2022-12-11T10:00:05;53.43;;;35.07;;
31808;SDS011;18379;48.208;-1.518;2022-12-11T10:11:07;64.37;;;41.80;;
31808;SDS011;18379;48.208;-1.518;2022-12-11T10:21:18;50.43;;;33.83;;
31808;SDS011;18379;48.208;-1.518;2022-12-11T10:26:21;57.93;;;37.77;;
31808;SDS011;18379;48.208;-1.518;2022-12-11T10:36:57;54.30;;;36.13;;
31808;SDS011;18379;48.208;-1.518;2022-12-11T10:41:58;51.37;;;35.23;;
31808;SDS011;18379;48.208;-1.518;2022-12-11T10:47:03;46.73;;;34.63;;
31808;SDS011;18379;48.208;-1.518;2022-12-11T10:52:12;50.37;;;34.43;;
31808;SDS011;18379;48.208;-1.518;2022-12-11T10:57:31;72.93;;;46.23;;
31808;SDS011;18379;48.208;-1.518;2022-12-11T11:02:36;62.80;;;40.83;;
31808;SDS011;18379;48.208;-1.518;2022-12-11T11:07:39;49.50;;;35.97;;
31808;SDS011;18379;48.208;-1.518;2022-12-11T11:12:47;56.30;;;39.47;;
31808;SDS011;18379;48.208;-1.518;2022-12-11T11:17:50;60.73;;;41.03;;
31808;SDS011;18379;48.208;-1.518;2022-12-11T11:22:56;59.23;;;40.60;;
31808;SDS011;18379;48.208;-1.518;2022-12-11T11:28:13;54.73;;;38.20;;
31808;SDS011;18379;48.208;-1.518;2022-12-11T11:33:20;57.40;;;40.57;;
31808;SDS011;18379;48.208;-1.518;2022-12-11T11:38:24;52.80;;;37.77;;
31808;SDS011;18379;48.208;-1.518;2022-12-11T11:43:55;53.20;;;38.80;;
31808;SDS011;18379;48.208;-1.518;2022-12-11T11:54:30;50.63;;;38.00;;
31808;SDS011;18379;48.208;-1.518;2022-12-11T11:59:52;49.13;;;38.27;;
31808;SDS011;18379;48.208;-1.518;2022-12-11T12:04:57;53.83;;;39.70;;
31808;SDS011;18379;48.208;-1.518;2022-12-11T12:10:02;48.37;;;35.47;;
31808;SDS011;18379;48.208;-1.518;2022-12-11T12:15:21;47.17;;;35.53;;
31808;SDS011;18379;48.208;-1.518;2022-12-11T12:20:50;45.00;;;35.97;;
31808;SDS011;18379;48.208;-1.518;2022-12-11T12:26:04;71.97;;;48.87;;
31808;SDS011;18379;48.208;-1.518;2022-12-11T12:36:25;58.07;;;41.37;;
31808;SDS011;18379;48.208;-1.518;2022-12-11T12:41:46;42.30;;;32.90;;
31808;SDS011;18379;48.208;-1.518;2022-12-11T12:52:04;47.60;;;34.03;;
31808;SDS011;18379;48.208;-1.518;2022-12-11T12:57:11;46.37;;;34.67;;
31808;SDS011;18379;48.208;-1.518;2022-12-11T13:02:12;48.93;;;38.03;;
31808;SDS011;18379;48.208;-1.518;2022-12-11T13:07:20;50.00;;;38.00;;
31808;SDS011;18379;48.208;-1.518;2022-12-11T13:12:33;55.03;;;39.10;;
31808;SDS011;18379;48.208;-1.518;2022-12-11T13:17:41;46.13;;;36.20;;
31808;SDS011;18379;48.208;-1.518;2022-12-11T13:33:46;45.70;;;36.37;;
31808;SDS011;18379;48.208;-1.518;2022-12-11T13:39:03;50.87;;;37.73;;
31808;SDS011;18379;48.208;-1.518;2022-12-11T13:44:07;46.37;;;35.47;;
31808;SDS011;18379;48.208;-1.518;2022-12-11T13:49:24;51.67;;;38.53;;
31808;SDS011;18379;48.208;-1.518;2022-12-11T13:54:29;48.00;;;37.83;;
31808;SDS011;18379;48.208;-1.518;2022-12-11T13:59:35;44.27;;;38.40;;
31808;SDS011;18379;48.208;-1.518;2022-12-11T14:04:37;41.17;;;34.07;;
31808;SDS011;18379;48.208;-1.518;2022-12-11T14:09:42;44.70;;;35.50;;
31808;SDS011;18379;48.208;-1.518;2022-12-11T14:14:48;62.93;;;46.77;;
31808;SDS011;18379;48.208;-1.518;2022-12-11T14:19:51;57.73;;;46.73;;
31808;SDS011;18379;48.208;-1.518;2022-12-11T14:24:54;62.40;;;47.63;;
31808;SDS011;18379;48.208;-1.518;2022-12-11T14:30:09;37.23;;;33.20;;
31808;SDS011;18379;48.208;-1.518;2022-12-11T14:35:20;38.80;;;34.57;;
31808;SDS011;18379;48.208;-1.518;2022-12-11T14:40:35;60.73;;;47.97;;
31808;SDS011;18379;48.208;-1.518;2022-12-11T14:45:40;37.83;;;32.97;;
31808;SDS011;18379;48.208;-1.518;2022-12-11T14:50:46;65.50;;;46.77;;
31808;SDS011;18379;48.208;-1.518;2022-12-11T14:55:49;65.50;;;50.83;;
31808;SDS011;18379;48.208;-1.518;2022-12-11T15:06:28;63.00;;;49.27;;
31808;SDS011;18379;48.208;-1.518;2022-12-11T15:11:34;38.60;;;34.40;;
31808;SDS011;18379;48.208;-1.518;2022-12-11T15:16:36;38.67;;;34.57;;
31808;SDS011;18379;48.208;-1.518;2022-12-11T15:21:39;39.70;;;35.30;;
31808;SDS011;18379;48.208;-1.518;2022-12-11T15:26:44;42.53;;;35.60;;
31808;SDS011;18379;48.208;-1.518;2022-12-11T15:31:57;64.23;;;47.67;;
31808;SDS011;18379;48.208;-1.518;2022-12-11T15:37:01;44.57;;;35.40;;
31808;SDS011;18379;48.208;-1.518;2022-12-11T15:42:05;38.40;;;34.23;;
31808;SDS011;18379;48.208;-1.518;2022-12-11T15:47:16;37.80;;;33.80;;
31808;SDS011;18379;48.208;-1.518;2022-12-11T15:52:26;60.70;;;48.77;;
31808;SDS011;18379;48.208;-1.518;2022-12-11T15:57:27;69.70;;;50.03;;
31808;SDS011;18379;48.208;-1.518;2022-12-11T16:02:28;57.73;;;46.10;;
31808;SDS011;18379;48.208;-1.518;2022-12-11T16:07:28;69.60;;;48.00;;
31808;SDS011;18379;48.208;-1.518;2022-12-11T16:12:30;41.23;;;36.43;;
31808;SDS011;18379;48.208;-1.518;2022-12-11T16:17:31;37.50;;;33.60;;
31808;SDS011;18379;48.208;-1.518;2022-12-11T16:22:32;40.90;;;35.70;;
31808;SDS011;18379;48.208;-1.518;2022-12-11T16:27:33;42.67;;;36.80;;
31808;SDS011;18379;48.208;-1.518;2022-12-11T16:32:34;51.03;;;38.97;;
31808;SDS011;18379;48.208;-1.518;2022-12-11T16:37:35;39.57;;;33.80;;
31808;SDS011;18379;48.208;-1.518;2022-12-11T16:42:39;41.07;;;35.83;;
31808;SDS011;18379;48.208;-1.518;2022-12-11T16:47:40;52.37;;;41.13;;
31808;SDS011;18379;48.208;-1.518;2022-12-11T16:52:41;48.57;;;41.33;;
31808;SDS011;18379;48.208;-1.518;2022-12-11T16:57:43;55.28;;;49.75;;
31808;SDS011;18379;48.208;-1.518;2022-12-11T17:02:43;68.93;;;48.40;;
31808;SDS011;18379;48.208;-1.518;2022-12-11T17:07:44;43.73;;;37.63;;
31808;SDS011;18379;48.208;-1.518;2022-12-11T17:12:45;43.83;;;37.27;;
31808;SDS011;18379;48.208;-1.518;2022-12-11T17:17:46;46.87;;;40.27;;
31808;SDS011;18379;48.208;-1.518;2022-12-11T17:22:47;52.67;;;39.70;;
31808;SDS011;18379;48.208;-1.518;2022-12-11T17:27:48;48.97;;;39.03;;
31808;SDS011;18379;48.208;-1.518;2022-12-11T17:32:49;55.27;;;40.70;;
31808;SDS011;18379;48.208;-1.518;2022-12-11T17:37:50;62.47;;;44.10;;
31808;SDS011;18379;48.208;-1.518;2022-12-11T17:42:51;55.20;;;40.73;;
31808;SDS011;18379;48.208;-1.518;2022-12-11T17:47:53;49.40;;;39.40;;
31808;SDS011;18379;48.208;-1.518;2022-12-11T17:52:54;59.43;;;44.73;;
31808;SDS011;18379;48.208;-1.518;2022-12-11T17:57:56;53.60;;;40.43;;
31808;SDS011;18379;48.208;-1.518;2022-12-11T18:02:57;57.10;;;40.50;;
31808;SDS011;18379;48.208;-1.518;2022-12-11T18:07:57;48.27;;;37.70;;
31808;SDS011;18379;48.208;-1.518;2022-12-11T18:13:00;44.17;;;34.87;;
31808;SDS011;18379;48.208;-1.518;2022-12-11T18:18:01;44.60;;;35.17;;
31808;SDS011;18379;48.208;-1.518;2022-12-11T18:23:03;44.43;;;35.17;;
31808;SDS011;18379;48.208;-1.518;2022-12-11T18:28:05;50.40;;;37.00;;
31808;SDS011;18379;48.208;-1.518;2022-12-11T18:33:07;49.43;;;39.00;;
31808;SDS011;18379;48.208;-1.518;2022-12-11T18:38:07;56.20;;;40.40;;
31808;SDS011;18379;48.208;-1.518;2022-12-11T18:43:08;50.03;;;38.93;;
31808;SDS011;18379;48.208;-1.518;2022-12-11T18:48:10;56.70;;;41.60;;
31808;SDS011;18379;48.208;-1.518;2022-12-11T18:53:11;49.53;;;37.87;;
31808;SDS011;18379;48.208;-1.518;2022-12-11T18:58:14;50.03;;;40.07;;
31808;SDS011;18379;48.208;-1.518;2022-12-11T19:03:16;56.17;;;42.27;;
31808;SDS011;18379;48.208;-1.518;2022-12-11T19:08:17;53.37;;;40.80;;
31808;SDS011;18379;48.208;-1.518;2022-12-11T19:13:17;53.20;;;41.40;;
31808;SDS011;18379;48.208;-1.518;2022-12-11T19:18:18;61.10;;;43.33;;
31808;SDS011;18379;48.208;-1.518;2022-12-11T19:23:20;62.50;;;44.73;;
31808;SDS011;18379;48.208;-1.518;2022-12-11T19:28:22;68.47;;;46.10;;
31808;SDS011;18379;48.208;-1.518;2022-12-11T19:33:23;56.97;;;41.33;;
31808;SDS011;18379;48.208;-1.518;2022-12-11T19:38:23;57.83;;;42.10;;
31808;SDS011;18379;48.208;-1.518;2022-12-11T19:43:24;60.83;;;42.70;;
31808;SDS011;18379;48.208;-1.518;2022-12-11T19:48:25;57.90;;;38.93;;
31808;SDS011;18379;48.208;-1.518;2022-12-11T19:53:27;58.67;;;41.07;;
31808;SDS011;18379;48.208;-1.518;2022-12-11T19:58:29;49.30;;;36.07;;
31808;SDS011;18379;48.208;-1.518;2022-12-11T20:03:30;52.87;;;38.73;;
31808;SDS011;18379;48.208;-1.518;2022-12-11T20:08:31;47.73;;;37.53;;
31808;SDS011;18379;48.208;-1.518;2022-12-11T20:13:32;45.93;;;35.53;;
31808;SDS011;18379;48.208;-1.518;2022-12-11T20:18:33;46.40;;;35.13;;
31808;SDS011;18379;48.208;-1.518;2022-12-11T20:23:34;52.90;;;38.17;;
31808;SDS011;18379;48.208;-1.518;2022-12-11T20:28:35;54.57;;;38.47;;
31808;SDS011;18379;48.208;-1.518;2022-12-11T20:33:37;49.77;;;37.37;;
31808;SDS011;18379;48.208;-1.518;2022-12-11T20:38:38;54.30;;;37.40;;
31808;SDS011;18379;48.208;-1.518;2022-12-11T20:43:40;52.60;;;38.03;;
31808;SDS011;18379;48.208;-1.518;2022-12-11T20:48:42;74.97;;;44.47;;
31808;SDS011;18379;48.208;-1.518;2022-12-11T20:53:44;70.47;;;44.03;;
31808;SDS011;18379;48.208;-1.518;2022-12-11T20:58:45;71.20;;;46.03;;
31808;SDS011;18379;48.208;-1.518;2022-12-11T21:03:46;56.13;;;39.77;;
31808;SDS011;18379;48.208;-1.518;2022-12-11T21:08:47;57.83;;;41.23;;
31808;SDS011;18379;48.208;-1.518;2022-12-11T21:13:48;58.10;;;40.40;;
31808;SDS011;18379;48.208;-1.518;2022-12-11T21:18:49;56.53;;;39.57;;
31808;SDS011;18379;48.208;-1.518;2022-12-11T21:23:50;70.00;;;46.33;;
31808;SDS011;18379;48.208;-1.518;2022-12-11T21:28:51;73.60;;;45.93;;
31808;SDS011;18379;48.208;-1.518;2022-12-11T21:33:52;77.63;;;48.03;;
31808;SDS011;18379;48.208;-1.518;2022-12-11T21:38:53;66.07;;;44.90;;
31808;SDS011;18379;48.208;-1.518;2022-12-11T21:43:55;47.93;;;36.37;;
31808;SDS011;18379;48.208;-1.518;2022-12-11T21:48:56;56.37;;;37.87;;
31808;SDS011;18379;48.208;-1.518;2022-12-11T21:53:57;70.43;;;44.27;;
31808;SDS011;18379;48.208;-1.518;2022-12-11T21:58:58;56.37;;;40.40;;
31808;SDS011;18379;48.208;-1.518;2022-12-11T22:04:00;51.00;;;37.43;;
31808;SDS011;18379;48.208;-1.518;2022-12-11T22:09:02;59.87;;;42.03;;
31808;SDS011;18379;48.208;-1.518;2022-12-11T22:14:04;60.50;;;41.47;;
31808;SDS011;18379;48.208;-1.518;2022-12-11T22:19:05;96.77;;;52.97;;
31808;SDS011;18379;48.208;-1.518;2022-12-11T22:24:06;61.63;;;43.43;;
31808;SDS011;18379;48.208;-1.518;2022-12-11T22:29:07;44.90;;;34.63;;
31808;SDS011;18379;48.208;-1.518;2022-12-11T22:34:08;47.47;;;36.27;;
31808;SDS011;18379;48.208;-1.518;2022-12-11T22:39:09;44.43;;;35.43;;
31808;SDS011;18379;48.208;-1.518;2022-12-11T22:44:19;43.30;;;34.60;;
31808;SDS011;18379;48.208;-1.518;2022-12-11T22:49:20;44.17;;;34.20;;
31808;SDS011;18379;48.208;-1.518;2022-12-11T22:54:21;43.27;;;33.13;;
31808;SDS011;18379;48.208;-1.518;2022-12-11T22:59:22;47.57;;;35.57;;
31808;SDS011;18379;48.208;-1.518;2022-12-11T23:04:23;44.50;;;35.57;;
31808;SDS011;18379;48.208;-1.518;2022-12-11T23:09:24;42.33;;;31.87;;
31808;SDS011;18379;48.208;-1.518;2022-12-11T23:14:24;41.70;;;33.10;;
31808;SDS011;18379;48.208;-1.518;2022-12-11T23:19:25;46.60;;;36.30;;
31808;SDS011;18379;48.208;-1.518;2022-12-11T23:24:26;45.53;;;33.77;;
31808;SDS011;18379;48.208;-1.518;2022-12-11T23:29:27;46.83;;;34.03;;
31808;SDS011;18379;48.208;-1.518;2022-12-11T23:34:28;41.97;;;33.20;;
31808;SDS011;18379;48.208;-1.518;2022-12-11T23:39:28;45.70;;;32.47;;
31808;SDS011;18379;48.208;-1.518;2022-12-11T23:44:29;39.37;;;31.97;;
31808;SDS011;18379;48.208;-1.518;2022-12-11T23:49:30;36.67;;;29.77;;
31808;SDS011;18379;48.208;-1.518;2022-12-11T23:54:31;30.90;;;27.70;;
31808;SDS011;18379;48.208;-1.518;2022-12-11T23:59:32;34.50;;;28.47;;
